Time;durP1;ratioP1;P1;durP2;ratioP2;P2;SDS_P1;SDS_P2;PMS_P1;PMS_P2;Temp;Humidity;BMP_temperature;BMP_pressure;BME280_temperature;BME280_humidity;BME280_pressure;Samples;Min_cycle;Max_cycle;Signal;HPM_P1;HPM_P2
2022/02/11 00:05:37;;;;;;;6.28;2.78;;;;;;;2.34;71.53;101161.81;5040784;28;20392;-51
2022/02/11 00:08:00;;;;;;;5.45;1.92;;;;;;;2.28;71.64;101170.97;5004734;28;20046;-56
2022/02/11 00:10:27;;;;;;;4.63;1.75;;;;;;;2.24;72.28;101186.97;5000584;28;20050;-51
2022/02/11 00:12:54;;;;;;;6.25;2.22;;;;;;;2.17;71.69;101177.22;5001700;28;20050;-54
2022/02/11 00:15:37;;;;;;;4.55;1.50;;;;;;;2.15;71.55;101184.81;5001783;28;20112;-57
2022/02/11 00:18:06;;;;;;;8.15;1.73;;;;;;;2.13;71.42;101170.19;5000629;28;20054;-54
2022/02/11 00:20:33;;;;;;;4.15;1.95;;;;;;;2.13;72.90;101165.09;5005427;28;20042;-56
2022/02/11 00:22:59;;;;;;;0.45;0.22;;;;;;;2.16;72.51;101176.34;5002723;28;20522;-57
2022/02/11 00:25:26;;;;;;;3.28;1.27;;;;;;;2.22;73.42;101169.75;5004346;28;20104;-56
2022/02/11 00:28:33;;;;;;;1.52;1.42;;;;;;;2.22;72.93;101165.53;5002868;28;20112;-55
2022/02/11 00:33:28;;;;;;;2.47;2.28;;;;;;;2.21;72.88;101171.47;4986254;28;20046;-55
2022/02/11 00:35:59;;;;;;;3.53;2.17;;;;;;;2.24;71.60;101169.06;4995559;28;20124;-54
2022/02/11 00:38:39;;;;;;;6.88;1.42;;;;;;;2.21;71.59;101163.78;5004516;28;20100;-54
2022/02/11 01:03:30;;;;;;;2.00;1.88;;;;;;;1.90;72.12;101200.56;5001316;28;20054;-55
2022/02/11 01:05:56;;;;;;;3.50;2.05;;;;;;;1.88;73.87;101195.38;5000948;28;20138;-54
2022/02/11 01:08:23;;;;;;;5.70;1.80;;;;;;;1.91;72.21;101210.00;5000461;28;20046;-55
2022/02/11 01:10:49;;;;;;;11.02;1.83;;;;;;;1.91;73.14;101212.53;4998093;28;20081;-52
2022/02/11 01:13:16;;;;;;;6.55;1.92;;;;;;;1.90;71.84;101218.47;5000384;28;20050;-52
2022/02/11 01:15:52;;;;;;;4.50;2.80;;;;;;;1.88;71.34;101225.16;4992817;28;20098;-54
2022/02/11 01:18:19;;;;;;;5.88;0.70;;;;;;;1.86;72.40;101226.78;4987135;28;20434;-52
2022/02/11 01:20:54;;;;;;;5.53;2.00;;;;;;;1.83;71.85;101236.81;4989692;28;20466;-54
2022/02/11 01:23:51;;;;;;;5.97;2.33;;;;;;;1.81;71.90;101239.28;4989708;28;20046;-52
2022/02/11 01:26:25;;;;;;;2.67;1.73;;;;;;;1.78;72.03;101254.47;4986693;28;20108;-56
2022/02/11 01:29:27;;;;;;;2.63;1.55;;;;;;;1.78;72.72;101244.25;4989011;28;20050;-55
2022/02/11 01:32:16;;;;;;;3.30;2.40;;;;;;;1.73;73.33;101251.69;4985382;28;20046;-55
2022/02/11 01:34:49;;;;;;;4.57;1.92;;;;;;;1.77;73.81;101253.59;4987384;28;20046;-55
2022/02/11 01:37:41;;;;;;;4.05;2.33;;;;;;;1.78;72.24;101247.69;4990790;28;20634;-52
2022/02/11 01:41:04;;;;;;;2.70;0.65;;;;;;;1.78;73.30;101252.78;4986326;28;20571;-49
2022/02/11 01:46:55;;;;;;;5.00;2.30;;;;;;;1.82;73.40;101265.72;4986901;28;20132;-54
2022/02/11 01:51:31;;;;;;;4.85;1.88;;;;;;;1.77;72.63;101280.81;5016420;28;20050;-52
2022/02/11 01:56:58;;;;;;;9.88;1.98;;;;;;;1.70;71.85;101274.50;4984947;28;20507;-57
2022/02/11 01:59:54;;;;;;;3.72;1.85;;;;;;;1.66;71.90;101272.59;4987671;28;20054;-56
2022/02/11 02:03:17;;;;;;;2.38;1.60;;;;;;;1.63;72.24;101267.31;4985111;28;20089;-56
2022/02/11 02:11:21;;;;;;;8.20;2.05;;;;;;;1.51;72.65;101286.28;4985752;28;20050;-52
2022/02/11 02:13:51;;;;;;;4.35;1.95;;;;;;;1.48;72.46;101290.31;4986995;28;20050;-51
2022/02/11 02:16:53;;;;;;;11.00;2.85;;;;;;;1.46;71.82;101303.03;4971557;28;20050;-55
2022/02/11 02:19:28;;;;;;;10.82;2.38;;;;;;;1.44;72.01;101303.72;4986330;28;20054;-54
2022/02/11 02:22:09;;;;;;;5.53;3.40;;;;;;;1.40;72.70;101313.78;4986408;28;20058;-53
2022/02/11 02:24:46;;;;;;;12.70;2.67;;;;;;;1.37;72.22;101317.81;4986743;28;20108;-50
2022/02/11 02:27:44;;;;;;;9.20;2.45;;;;;;;1.34;72.02;101322.75;4983023;28;20046;-56
2022/02/11 02:33:23;;;;;;;12.07;1.23;;;;;;;1.31;72.03;101327.72;4984617;28;20442;-51
2022/02/11 02:38:52;;;;;;;10.85;2.83;;;;;;;1.24;72.45;101332.47;5007994;28;20077;-51
2022/02/11 02:58:13;;;;;;;14.75;2.45;;;;;;;1.20;71.76;101360.28;4982445;28;20054;-54
2022/02/11 03:15:15;;;;;;;7.63;2.28;;;;;;;1.28;72.75;101365.03;4981944;28;20046;-55
2022/02/11 03:34:41;;;;;;;8.88;2.58;;;;;;;1.54;73.22;101373.28;4983016;28;20049;-58
2022/02/11 03:57:25;;;;;;;6.05;2.30;;;;;;;1.83;72.84;101401.22;4983817;28;20100;-52
2022/02/11 04:25:38;;;;;;;4.32;2.00;;;;;;;1.77;73.77;101412.00;4983097;28;20481;-54
2022/02/11 04:55:22;;;;;;;9.00;2.20;;;;;;;1.58;73.45;101458.59;4990333;28;20098;-51
2022/02/11 05:00:26;;;;;;;8.43;2.60;;;;;;;1.67;73.02;101476.13;4987590;28;20105;-52
2022/02/11 05:02:56;;;;;;;7.00;2.15;;;;;;;1.72;73.55;101489.16;4989913;28;20042;-52
2022/02/11 05:05:24;;;;;;;5.90;2.03;;;;;;;1.75;74.22;101487.66;4995817;28;20049;-54
2022/02/11 05:07:50;;;;;;;2.60;2.10;;;;;;;1.77;73.37;101486.09;4990886;28;20054;-53
2022/02/11 05:10:19;;;;;;;8.60;2.55;;;;;;;1.79;72.84;101502.34;4989319;28;20054;-54
2022/02/11 05:12:46;;;;;;;3.53;1.52;;;;;;;1.79;72.94;101507.47;4990647;28;20073;-51
2022/02/11 05:15:12;;;;;;;7.53;2.05;;;;;;;1.80;72.13;101513.47;4987781;28;20128;-57
2022/02/11 05:17:43;;;;;;;5.20;2.15;;;;;;;1.80;72.45;101514.34;4989319;28;20112;-51
2022/02/11 05:20:10;;;;;;;9.65;3.20;;;;;;;1.80;73.60;101519.44;4987188;28;20053;-57
2022/02/11 05:22:36;;;;;;;4.88;3.13;;;;;;;1.79;73.49;101525.34;4988100;28;20633;-55
2022/02/11 05:25:08;;;;;;;5.10;2.08;;;;;;;1.79;72.71;101533.03;4988417;28;20074;-52
2022/02/11 05:27:36;;;;;;;6.57;2.08;;;;;;;1.82;73.56;101541.66;4985271;28;20533;-52
2022/02/11 05:30:03;;;;;;;7.28;2.58;;;;;;;1.85;72.36;101544.38;4988632;28;20062;-55
2022/02/11 05:32:30;;;;;;;8.82;2.63;;;;;;;1.86;73.21;101549.56;4987870;28;20054;-57
2022/02/11 05:34:56;;;;;;;3.85;2.85;;;;;;;1.88;73.99;101557.34;4987406;28;20160;-50
2022/02/11 05:37:24;;;;;;;7.10;2.13;;;;;;;1.90;73.76;101555.75;4987614;28;20054;-55
2022/02/11 05:39:50;;;;;;;4.55;2.10;;;;;;;1.91;72.41;101554.97;4992354;28;20046;-55
2022/02/11 05:42:17;;;;;;;6.20;1.88;;;;;;;1.92;73.44;101559.25;4987219;28;20097;-58
2022/02/11 05:44:43;;;;;;;9.90;2.30;;;;;;;1.92;72.63;101566.94;4991337;28;20043;-51
2022/02/11 05:47:12;;;;;;;3.92;2.35;;;;;;;1.92;73.13;101570.38;4989387;28;20050;-58
2022/02/11 05:49:38;;;;;;;4.82;2.25;;;;;;;1.93;72.18;101566.16;4993183;28;20600;-51
2022/02/11 05:52:05;;;;;;;2.28;2.05;;;;;;;1.93;73.54;101566.16;4989977;28;20058;-55
2022/02/11 05:54:32;;;;;;;6.15;2.40;;;;;;;1.91;73.61;101570.28;4990644;28;20042;-51
2022/02/11 05:56:58;;;;;;;2.15;1.85;;;;;;;1.84;73.60;101573.28;4989550;28;20050;-54
2022/02/11 05:59:25;;;;;;;3.40;1.77;;;;;;;1.79;73.31;101573.91;4986809;28;20046;-54
2022/02/11 06:01:51;;;;;;;3.05;2.33;;;;;;;1.76;72.94;101581.38;4993998;28;20046;-56
2022/02/11 06:04:18;;;;;;;3.20;2.00;;;;;;;1.70;72.58;101577.59;4988157;28;20133;-47
2022/02/11 06:06:45;;;;;;;7.70;1.90;;;;;;;1.63;73.12;101576.34;4991022;28;20092;-50
2022/02/11 06:09:11;;;;;;;4.20;1.92;;;;;;;1.58;72.58;101585.44;4989833;28;20120;-58
2022/02/11 06:11:38;;;;;;;3.78;2.13;;;;;;;1.51;72.99;101585.06;4991413;28;20100;-51
2022/02/11 06:14:04;;;;;;;7.53;2.33;;;;;;;1.48;74.22;101587.44;4990148;28;20615;-57
2022/02/11 06:16:31;;;;;;;6.13;2.42;;;;;;;1.44;74.00;101590.59;4987611;28;20046;-51
2022/02/11 06:18:58;;;;;;;5.00;2.33;;;;;;;1.41;72.99;101606.63;4991135;28;20054;-53
2022/02/11 06:21:24;;;;;;;3.58;2.58;;;;;;;1.38;73.37;101600.41;4990966;28;20046;-57
2022/02/11 06:23:55;;;;;;;4.95;2.45;;;;;;;1.33;72.89;101597.63;4987203;28;20039;-48
2022/02/11 06:26:25;;;;;;;4.53;2.20;;;;;;;1.31;73.03;101598.31;4990356;28;20100;-52
2022/02/11 06:28:55;;;;;;;5.43;3.30;;;;;;;1.28;73.19;101596.44;4989318;28;20049;-52
2022/02/11 06:31:22;;;;;;;5.53;2.53;;;;;;;1.25;72.98;101609.91;5002983;28;20043;-56
2022/02/11 06:33:50;;;;;;;5.40;2.30;;;;;;;1.20;73.83;101606.19;4989832;28;20050;-50
2022/02/11 06:36:16;;;;;;;5.00;1.10;;;;;;;1.18;74.07;101607.75;4984891;28;20447;-57
2022/02/11 06:38:47;;;;;;;7.53;2.30;;;;;;;1.15;73.51;101608.47;4988179;28;20112;-51
2022/02/11 06:41:14;;;;;;;5.15;2.38;;;;;;;1.12;73.50;101604.84;4992327;28;20070;-56
2022/02/11 06:43:40;;;;;;;3.88;1.92;;;;;;;1.09;73.54;101607.22;4988889;28;20193;-51
2022/02/11 06:46:09;;;;;;;8.75;2.92;;;;;;;1.05;73.88;101610.38;4989074;28;20096;-52
2022/02/11 06:48:36;;;;;;;6.22;2.42;;;;;;;1.01;73.81;101615.28;4988104;28;20050;-50
2022/02/11 06:51:02;;;;;;;12.10;2.83;;;;;;;1.00;73.75;101623.72;4989002;28;20093;-51
2022/02/11 06:53:30;;;;;;;2.40;2.10;;;;;;;0.98;73.17;101619.31;4987179;28;20050;-50
2022/02/11 06:55:56;;;;;;;3.92;2.08;;;;;;;0.95;73.85;101625.09;4990753;28;20097;-52
2022/02/11 06:58:23;;;;;;;9.88;3.00;;;;;;;0.95;73.70;101635.28;4987999;28;20081;-59
2022/02/11 07:00:50;;;;;;;9.57;2.53;;;;;;;0.93;73.92;101638.53;4981957;28;20066;-56
2022/02/11 07:03:18;;;;;;;8.05;2.35;;;;;;;0.94;73.35;101641.19;4982278;28;20043;-54
2022/02/11 07:05:45;;;;;;;7.47;2.72;;;;;;;0.91;73.99;101653.75;4982870;28;20538;-53
2022/02/11 07:08:12;;;;;;;82.43;28.90;;;;;;;0.89;73.60;101658.78;4983190;28;20049;-55
2022/02/11 07:10:39;;;;;;;79.13;29.08;;;;;;;0.87;73.34;101662.00;4983859;28;20055;-55
2022/02/11 07:13:13;;;;;;;38.92;12.88;;;;;;;0.86;74.22;101665.34;4983085;28;20615;-54
2022/02/11 07:15:42;;;;;;;11.13;5.07;;;;;;;0.85;74.55;101669.56;4981501;28;20061;-53
2022/02/11 07:18:10;;;;;;;5.45;3.00;;;;;;;0.85;73.64;101668.69;4984145;28;20108;-52
2022/02/11 07:20:37;;;;;;;9.43;2.42;;;;;;;0.83;73.53;101667.69;4982583;28;20066;-56
2022/02/11 07:23:04;;;;;;;7.68;2.70;;;;;;;0.83;74.14;101675.34;4983898;28;20055;-55
2022/02/11 07:25:32;;;;;;;5.63;2.83;;;;;;;0.83;73.88;101680.47;4982400;28;20053;-53
2022/02/11 07:27:59;;;;;;;11.23;2.97;;;;;;;0.83;73.43;101691.56;4983484;28;20462;-54
2022/02/11 07:30:29;;;;;;;7.32;3.00;;;;;;;0.83;73.80;101695.75;4981690;28;20084;-51
2022/02/11 07:32:56;;;;;;;17.08;6.00;;;;;;;0.82;73.31;101700.00;4981146;28;20054;-54
2022/02/11 07:35:23;;;;;;;20.42;6.78;;;;;;;0.81;74.13;101700.75;4980967;28;20053;-52
2022/02/11 07:37:52;;;;;;;23.63;7.32;;;;;;;0.82;73.54;101704.22;4980283;28;20049;-54
2022/02/11 07:40:19;;;;;;;28.50;8.15;;;;;;;0.80;74.27;101705.75;4981554;28;20116;-49
2022/02/11 07:42:47;;;;;;;28.65;8.77;;;;;;;0.82;73.66;101714.41;4983953;28;20227;-56
2022/02/11 07:45:16;;;;;;;15.02;5.68;;;;;;;0.84;73.83;101717.97;4980000;28;20062;-56
2022/02/11 07:47:42;;;;;;;14.43;4.90;;;;;;;0.85;74.49;101720.59;4976331;28;20533;-57
2022/02/11 07:50:09;;;;;;;12.65;5.38;;;;;;;0.91;74.04;101730.28;4981738;28;20068;-54
2022/02/11 07:52:36;;;;;;;10.98;4.93;;;;;;;0.97;73.60;101740.00;4982754;28;20061;-54
2022/02/11 07:55:03;;;;;;;8.05;3.88;;;;;;;0.98;73.89;101732.47;4979271;28;20058;-51
2022/02/11 07:57:30;;;;;;;7.18;2.33;;;;;;;1.01;74.20;101731.75;4979999;28;20078;-54
2022/02/11 07:59:56;;;;;;;6.80;3.42;;;;;;;1.05;74.33;101737.97;4977656;28;20210;-56
2022/02/11 08:02:23;;;;;;;5.30;2.92;;;;;;;1.09;74.10;101747.59;4980582;28;20105;-52
2022/02/11 08:04:49;;;;;;;7.53;2.50;;;;;;;1.17;72.76;101748.94;4978327;28;20046;-57
2022/02/11 08:07:16;;;;;;;7.75;2.70;;;;;;;1.27;73.25;101751.31;4981461;28;20058;-50
2022/02/11 08:09:42;;;;;;;9.60;3.03;;;;;;;1.42;73.35;101755.63;4985257;28;20042;-54
2022/02/11 08:12:11;;;;;;;6.10;2.70;;;;;;;1.71;74.16;101759.06;4980396;28;20475;-55
2022/02/11 08:14:38;;;;;;;7.80;2.40;;;;;;;2.03;73.67;101770.34;4970376;28;20054;-53
2022/02/11 08:17:04;;;;;;;5.18;2.17;;;;;;;2.21;72.80;101767.13;4966792;28;20708;-54
2022/02/11 08:19:31;;;;;;;11.10;3.08;;;;;;;2.35;72.33;101773.06;4981877;28;20058;-54
2022/02/11 08:21:57;;;;;;;8.98;2.97;;;;;;;2.61;72.75;101775.38;4981551;28;20063;-52
2022/02/11 08:24:24;;;;;;;8.45;4.03;;;;;;;3.06;71.97;101773.69;4981342;28;20046;-50
2022/02/11 08:26:51;;;;;;;7.45;3.22;;;;;;;3.33;71.20;101783.69;4987592;28;20058;-54
2022/02/11 08:29:22;;;;;;;7.00;2.83;;;;;;;3.52;71.32;101779.56;4987544;28;20042;-53
2022/02/11 08:31:49;;;;;;;10.48;2.35;;;;;;;3.70;70.95;101783.91;4979562;28;20050;-58
2022/02/11 08:34:15;;;;;;;5.25;2.40;;;;;;;3.84;70.90;101790.66;4986181;28;20058;-54
2022/02/11 08:36:42;;;;;;;5.68;2.47;;;;;;;4.06;71.02;101794.34;4986391;28;20097;-55
2022/02/11 08:39:09;;;;;;;5.78;1.70;;;;;;;4.16;70.22;101799.97;4989372;28;20383;-55
2022/02/11 08:41:36;;;;;;;6.47;3.25;;;;;;;4.17;69.90;101801.72;4987404;28;20509;-55
2022/02/11 08:44:02;;;;;;;6.65;2.63;;;;;;;4.14;69.68;101801.56;4986720;28;20118;-56
2022/02/11 08:46:30;;;;;;;6.20;2.65;;;;;;;4.10;69.20;101800.53;4988100;28;20043;-53
2022/02/11 08:48:56;;;;;;;12.02;1.58;;;;;;;4.06;69.84;101790.91;4983078;28;20137;-53
2022/02/11 08:51:23;;;;;;;6.07;2.17;;;;;;;3.97;69.34;101799.00;4987365;28;20054;-52
2022/02/11 08:53:51;;;;;;;9.55;2.30;;;;;;;3.85;69.13;101810.38;4989135;28;20490;-55
2022/02/11 08:56:18;;;;;;;11.30;2.67;;;;;;;3.76;69.96;101815.00;4980525;28;20054;-58
2022/02/11 08:58:45;;;;;;;3.25;1.92;;;;;;;3.75;69.64;101818.34;4982861;28;21266;-57
2022/02/11 09:01:12;;;;;;;4.22;2.30;;;;;;;3.81;69.41;101813.56;4985864;28;20054;-50
2022/02/11 09:03:39;;;;;;;3.88;2.55;;;;;;;3.87;69.24;101823.28;4986229;28;20077;-52
2022/02/11 09:06:07;;;;;;;5.70;2.67;;;;;;;3.88;69.23;101817.31;4986470;28;20046;-56
2022/02/11 09:08:36;;;;;;;5.00;2.47;;;;;;;3.98;69.34;101818.69;4989891;28;20093;-54
2022/02/11 09:11:04;;;;;;;6.38;2.22;;;;;;;4.37;70.10;101826.75;4985819;28;20066;-55
2022/02/11 09:13:32;;;;;;;4.68;1.95;;;;;;;4.89;69.47;101824.13;4981357;28;20057;-54
2022/02/11 09:15:59;;;;;;;4.57;2.90;;;;;;;5.45;69.74;101819.09;4983347;28;20058;-55
2022/02/11 09:18:27;;;;;;;5.80;2.80;;;;;;;6.03;69.41;101824.25;4984230;28;20042;-55
2022/02/11 09:20:54;;;;;;;8.68;1.13;;;;;;;6.65;69.12;101821.81;4984863;28;20156;-58
2022/02/11 09:23:23;;;;;;;3.47;1.27;;;;;;;7.22;67.61;101824.09;4985922;28;20109;-53
2022/02/11 09:25:51;;;;;;;9.63;1.70;;;;;;;7.66;65.52;101814.59;4992752;28;20050;-58
2022/02/11 09:28:18;;;;;;;5.45;1.13;;;;;;;8.43;65.65;101823.38;4989054;28;20058;-55
2022/02/11 09:30:45;;;;;;;10.30;1.45;;;;;;;9.38;64.43;101818.72;4986858;28;20115;-51
2022/02/11 09:33:13;;;;;;;4.25;1.20;;;;;;;10.27;63.16;101820.38;4985146;28;20117;-54
2022/02/11 09:35:39;;;;;;;6.47;1.60;;;;;;;11.16;61.76;101822.59;4989985;28;20117;-58
2022/02/11 09:38:07;;;;;;;4.55;1.05;;;;;;;11.97;59.93;101824.34;4986645;28;20538;-56
2022/02/11 09:40:39;;;;;;;6.72;1.15;;;;;;;12.78;60.03;101824.94;4984854;28;20058;-55
2022/02/11 09:43:09;;;;;;;6.63;1.30;;;;;;;13.52;57.22;101822.63;4987476;28;20057;-56
2022/02/11 09:45:36;;;;;;;5.57;1.70;;;;;;;14.09;55.70;101822.44;4987453;28;20509;-53
2022/02/11 09:48:03;;;;;;;6.68;1.30;;;;;;;14.50;55.45;101822.84;4988921;28;20511;-56
2022/02/11 09:50:31;;;;;;;4.97;1.20;;;;;;;15.15;54.24;101817.31;4985611;28;20393;-57
2022/02/11 09:52:56;;;;;;;5.43;1.30;;;;;;;15.85;52.54;101820.28;4984678;28;20038;-51
2022/02/11 09:55:33;;;;;;;4.75;1.15;;;;;;;16.45;51.52;101811.72;4984386;28;20105;-57
2022/02/11 09:58:17;;;;;;;3.60;1.08;;;;;;;17.18;50.13;101809.97;4987153;28;20493;-55
2022/02/11 10:00:48;;;;;;;8.48;1.45;;;;;;;17.85;48.49;101810.63;4984242;28;21757;-50
2022/02/11 10:03:22;;;;;;;;;;;;;;;18.21;49.03;101813.06;4985170;28;20108;-57
2022/02/11 10:05:59;;;;;;;5.45;0.98;;;;;;;18.83;45.91;101805.59;4990145;28;19929;-54
2022/02/11 10:08:28;;;;;;;4.85;1.30;;;;;;;19.29;45.41;101809.56;4984816;28;20050;-56
2022/02/11 10:10:57;;;;;;;6.72;1.17;;;;;;;19.64;44.06;101804.75;4987598;28;20625;-52
2022/02/11 10:13:31;;;;;;;6.18;2.92;;;;;;;20.02;43.01;101803.41;4986891;28;20438;-52
2022/02/11 10:16:08;;;;;;;5.22;1.55;;;;;;;20.42;41.90;101804.56;4984366;28;20426;-58
2022/02/11 10:18:37;;;;;;;6.00;1.38;;;;;;;20.79;41.24;101813.59;4986220;28;20042;-59
2022/02/11 10:21:05;;;;;;;4.57;1.25;;;;;;;21.04;40.87;101802.63;4984154;28;20121;-54
2022/02/11 10:23:39;;;;;;;3.38;1.13;;;;;;;21.28;39.25;101802.19;4984626;28;20577;-55
2022/02/11 10:26:10;;;;;;;3.58;1.08;;;;;;;21.58;39.14;101803.34;4985203;28;20376;-53
2022/02/11 10:28:55;;;;;;;2.85;0.75;;;;;;;21.87;37.82;101808.03;4983472;28;20105;-55
2022/02/11 10:31:29;;;;;;;4.25;1.45;;;;;;;22.09;36.98;101811.91;4991707;28;20057;-53
2022/02/11 10:34:18;;;;;;;3.97;1.27;;;;;;;22.28;37.01;101814.13;4985136;28;20069;-56
2022/02/11 10:36:48;;;;;;;5.13;1.42;;;;;;;22.41;36.08;101820.00;4983509;28;20085;-53
2022/02/11 10:39:25;;;;;;;5.95;1.13;;;;;;;22.35;36.51;101814.84;4984281;28;20065;-56
2022/02/11 10:41:56;;;;;;;5.47;1.60;;;;;;;22.41;35.12;101813.81;4984146;28;20422;-55
2022/02/11 10:44:26;;;;;;;3.08;1.38;;;;;;;22.40;35.69;101822.66;4988723;28;20039;-53
2022/02/11 10:46:58;;;;;;;10.75;2.00;;;;;;;22.41;35.43;101824.38;4985782;28;20068;-56
2022/02/11 10:49:39;;;;;;;6.22;1.85;;;;;;;22.33;34.74;101833.34;4988502;28;20061;-59
2022/02/11 10:52:23;;;;;;;6.43;1.42;;;;;;;22.30;33.84;101828.19;4986544;28;20078;-54
2022/02/11 10:54:53;;;;;;;5.22;1.30;;;;;;;22.29;34.38;101825.56;4986837;28;20046;-58
2022/02/11 10:57:24;;;;;;;8.45;1.48;;;;;;;22.00;34.01;101835.88;4982051;28;20046;-59
2022/02/11 10:59:52;;;;;;;5.43;1.83;;;;;;;21.52;34.35;101840.34;4987527;28;20562;-57
2022/02/11 11:02:22;;;;;;;8.10;1.45;;;;;;;20.95;35.24;101842.31;4982821;28;20046;-55
2022/02/11 11:04:51;;;;;;;4.80;1.20;;;;;;;20.29;34.85;101842.47;4987432;28;20116;-56
2022/02/11 11:07:27;;;;;;;6.32;2.30;;;;;;;19.35;35.48;101843.63;4985259;28;20323;-60
2022/02/11 11:10:14;;;;;;;4.68;1.17;;;;;;;18.47;37.20;101845.22;4987176;28;20090;-57
2022/02/11 11:12:48;;;;;;;6.93;1.23;;;;;;;17.79;37.92;101838.59;4981420;28;20090;-55
2022/02/11 11:15:18;;;;;;;5.38;0.65;;;;;;;17.07;38.99;101836.19;4988221;28;20058;-54
2022/02/11 11:17:49;;;;;;;7.68;1.85;;;;;;;16.63;40.17;101825.69;4982993;28;20042;-57
2022/02/11 11:20:21;;;;;;;4.68;1.40;;;;;;;16.29;40.65;101826.53;4983940;28;20096;-58
2022/02/11 11:22:56;;;;;;;8.10;1.60;;;;;;;15.68;40.85;101828.91;4986874;28;20046;-52
2022/02/11 11:25:23;;;;;;;5.82;2.83;;;;;;;15.09;42.21;101823.34;4986261;28;20915;-53
2022/02/11 11:27:53;;;;;;;6.75;2.00;;;;;;;14.70;42.98;101827.38;4982529;28;20043;-56
2022/02/11 11:30:23;;;;;;;5.80;1.10;;;;;;;14.29;43.10;101827.00;4985407;28;20612;-56
2022/02/11 11:33:19;;;;;;;6.47;1.45;;;;;;;13.58;43.36;101820.09;4984104;28;20556;-56
2022/02/11 11:36:04;;;;;;;7.45;1.90;;;;;;;13.43;45.14;101835.47;4981757;28;20090;-54
2022/02/11 11:38:42;;;;;;;6.97;1.05;;;;;;;13.31;45.02;101826.63;4979430;28;20057;-51
2022/02/11 11:41:19;;;;;;;6.40;1.30;;;;;;;13.31;45.66;101825.78;4982347;28;20053;-53
2022/02/11 11:43:55;;;;;;;4.22;0.75;;;;;;;13.07;45.04;101832.38;4982405;28;20054;-50
2022/02/11 11:46:27;;;;;;;6.40;0.85;;;;;;;12.93;46.28;101829.50;4985483;28;20051;-54
2022/02/11 11:48:59;;;;;;;6.32;1.38;;;;;;;12.77;46.26;101836.22;4984116;28;20051;-56
2022/02/11 11:52:06;;;;;;;9.05;1.90;;;;;;;12.46;46.38;101833.94;4983725;28;20049;-53
2022/02/11 11:54:33;;;;;;;5.35;1.83;;;;;;;12.36;46.85;101837.22;4998257;28;20698;-57
2022/02/11 11:57:09;;;;;;;9.55;1.58;;;;;;;12.24;47.03;101833.53;4983536;28;20058;-56
2022/02/11 11:59:46;;;;;;;6.65;1.45;;;;;;;12.07;47.79;101826.31;4980488;28;20073;-48
2022/02/11 12:02:25;;;;;;;6.15;1.80;;;;;;;11.92;47.63;101825.97;4982371;28;21802;-51
2022/02/11 12:04:54;;;;;;;4.40;1.30;;;;;;;11.83;48.54;101819.72;4983505;28;20054;-50
2022/02/11 12:07:24;;;;;;;6.13;1.50;;;;;;;11.79;48.97;101820.50;4982708;28;20097;-51
2022/02/11 12:09:53;;;;;;;4.22;1.35;;;;;;;11.75;49.15;101813.50;4984014;28;20058;-50
2022/02/11 12:12:23;;;;;;;8.02;1.25;;;;;;;11.69;48.28;101813.41;4983939;28;20042;-52
2022/02/11 12:14:55;;;;;;;5.93;1.38;;;;;;;11.63;48.20;101813.25;4983213;28;20112;-55
2022/02/11 12:17:23;;;;;;;4.63;0.82;;;;;;;11.57;49.16;101807.09;4987122;28;20054;-58
2022/02/11 12:19:51;;;;;;;5.38;1.15;;;;;;;11.64;49.08;101799.41;4986571;28;20112;-52
2022/02/11 12:22:20;;;;;;;5.50;1.55;;;;;;;11.72;48.58;101808.25;4987796;28;20050;-57
2022/02/11 12:27:40;;;;;;;4.50;0.80;;;;;;;11.62;48.07;101806.31;4983901;28;20430;-59
2022/02/11 12:30:10;;;;;;;5.53;0.60;;;;;;;11.49;48.18;101807.75;4991233;28;20059;-56
2022/02/11 12:32:43;;;;;;;5.25;0.60;;;;;;;11.31;49.45;101802.19;4987533;28;20054;-53
2022/02/11 12:35:12;;;;;;;3.40;0.75;;;;;;;11.20;48.95;101798.50;4987746;28;20054;-56
2022/02/11 12:37:41;;;;;;;4.22;0.75;;;;;;;11.07;48.49;101788.69;4988723;28;20109;-55
2022/02/11 12:40:14;;;;;;;3.88;0.80;;;;;;;10.90;48.87;101779.66;4983259;28;20452;-53
2022/02/11 12:42:44;;;;;;;1.58;0.47;;;;;;;10.80;50.17;101791.53;4988554;28;20097;-60
2022/02/11 12:45:13;;;;;;;3.35;0.60;;;;;;;10.72;49.66;101790.47;4984205;28;20097;-54
2022/02/11 12:47:40;;;;;;;3.75;0.82;;;;;;;10.63;50.02;101782.44;4989861;28;20054;-51
2022/02/11 12:50:09;;;;;;;9.80;0.90;;;;;;;10.51;50.38;101786.47;4985269;28;20097;-54
2022/02/11 12:52:38;;;;;;;8.23;1.40;;;;;;;10.36;49.95;101781.75;4982114;28;20117;-51
2022/02/11 12:55:10;;;;;;;4.18;1.00;;;;;;;10.35;50.35;101779.13;4985957;28;20054;-58
2022/02/11 12:57:40;;;;;;;4.68;0.95;;;;;;;10.31;50.47;101766.94;4983044;28;20054;-58
2022/02/11 13:00:11;;;;;;;7.00;0.98;;;;;;;10.23;50.51;101785.72;4977001;28;20042;-55
2022/02/11 13:02:41;;;;;;;3.35;1.15;;;;;;;10.17;50.40;101770.03;4987488;28;20042;-57
2022/02/11 13:05:20;;;;;;;5.72;1.75;;;;;;;10.14;50.33;101759.59;4983516;28;20449;-59
2022/02/11 13:07:50;;;;;;;3.75;1.23;;;;;;;10.26;50.51;101769.38;4987280;28;20557;-55
2022/02/11 13:10:20;;;;;;;6.70;1.08;;;;;;;10.26;50.67;101759.03;4987455;28;20054;-56
2022/02/11 13:12:49;;;;;;;6.43;1.10;;;;;;;10.25;50.99;101753.00;4992608;28;20049;-52
2022/02/11 13:15:17;;;;;;;6.00;0.90;;;;;;;10.24;50.96;101761.56;4984436;28;20104;-54
2022/02/11 13:17:45;;;;;;;5.38;0.70;;;;;;;10.26;50.98;101754.75;4988893;28;20054;-58
2022/02/11 13:20:18;;;;;;;4.43;1.05;;;;;;;10.19;51.13;101750.22;4993825;28;20501;-52
2022/02/11 13:22:47;;;;;;;2.75;0.77;;;;;;;10.07;50.82;101758.56;4991353;28;20551;-56
2022/02/11 13:25:15;;;;;;;3.25;0.73;;;;;;;9.99;51.01;101749.69;4992933;28;20201;-55
2022/02/11 13:27:57;;;;;;;3.88;0.75;;;;;;;9.93;51.51;101745.22;4987412;28;20042;-51
2022/02/11 13:30:27;;;;;;;5.97;0.93;;;;;;;9.92;51.48;101743.47;4985379;28;20065;-48
2022/02/11 13:32:56;;;;;;;5.40;1.05;;;;;;;9.91;51.44;101741.72;4986838;28;20190;-50
2022/02/11 13:35:24;;;;;;;4.40;0.75;;;;;;;9.87;51.59;101729.53;4985030;28;20066;-58
2022/02/11 13:37:53;;;;;;;3.20;1.50;;;;;;;9.80;51.52;101723.34;4989862;28;20611;-57
2022/02/11 13:40:24;;;;;;;4.18;1.20;;;;;;;9.77;51.79;101728.41;4985211;28;20079;-55
2022/02/11 13:43:08;;;;;;;6.60;1.08;;;;;;;9.67;51.84;101722.13;4985564;28;20101;-53
2022/02/11 13:45:54;;;;;;;10.10;1.90;;;;;;;9.59;51.98;101723.59;4988213;28;20042;-52
2022/02/11 13:48:23;;;;;;;6.43;1.58;;;;;;;9.55;51.83;101726.94;4985484;28;20117;-53
2022/02/11 13:51:11;;;;;;;10.05;2.95;;;;;;;9.42;52.11;101726.56;4987154;28;20179;-51
2022/02/11 13:53:43;;;;;;;5.75;1.02;;;;;;;9.43;53.04;101728.34;4985025;28;20050;-59
2022/02/11 13:56:12;;;;;;;3.25;1.05;;;;;;;9.43;52.62;101727.47;4991185;28;20590;-57
2022/02/11 13:59:01;;;;;;;5.53;0.93;;;;;;;9.32;52.52;101725.41;4987924;28;20623;-56
2022/02/11 14:01:30;;;;;;;4.07;0.80;;;;;;;9.26;52.09;101717.50;4985080;28;20049;-53
2022/02/11 14:03:58;;;;;;;6.70;0.90;;;;;;;9.15;52.13;101719.75;4978247;28;20067;-52
2022/02/11 14:06:25;;;;;;;5.00;0.90;;;;;;;9.05;51.88;101715.16;4980844;28;20101;-57
2022/02/11 14:08:54;;;;;;;3.80;0.57;;;;;;;8.94;51.74;101722.56;4979728;28;20058;-53
2022/02/11 14:11:21;;;;;;;2.72;0.73;;;;;;;8.85;52.67;101718.00;4983474;28;20058;-59
2022/02/11 14:13:48;;;;;;;3.33;2.95;;;;;;;8.77;52.52;101719.44;4984298;28;20054;-54
2022/02/11 14:16:17;;;;;;;3.40;1.88;;;;;;;8.68;52.23;101707.13;4986461;28;20565;-54
2022/02/11 14:18:44;;;;;;;2.13;0.40;;;;;;;8.64;52.96;101706.13;4984798;28;20062;-55
2022/02/11 14:21:13;;;;;;;8.27;0.80;;;;;;;8.61;53.79;101704.34;4981293;28;20145;-55
2022/02/11 14:23:40;;;;;;;4.45;1.05;;;;;;;8.58;52.87;101703.38;4982112;28;20446;-54
2022/02/11 14:26:07;;;;;;;2.28;0.40;;;;;;;8.56;53.55;101689.53;4985916;28;20054;-56
2022/02/11 14:28:34;;;;;;;2.63;0.80;;;;;;;8.55;52.62;101692.94;4985314;28;20046;-55
2022/02/11 14:31:04;;;;;;;5.35;2.53;;;;;;;8.48;52.75;101692.69;4989740;28;20112;-56
2022/02/11 14:33:30;;;;;;;5.82;0.77;;;;;;;8.46;53.95;101688.31;4984541;28;20073;-50
2022/02/11 14:35:57;;;;;;;4.72;2.55;;;;;;;8.37;54.18;101688.88;4980109;28;20046;-51
2022/02/11 14:38:27;;;;;;;5.60;1.92;;;;;;;8.37;52.98;101688.88;4987037;28;20060;-54
2022/02/11 14:43:41;;;;;;;6.20;3.50;;;;;;;8.29;53.94;101682.59;4983397;28;20109;-50
2022/02/11 14:46:08;;;;;;;4.72;0.68;;;;;;;8.26;53.55;101679.91;4986765;28;20054;-54